createdAt,value
2023-04-24T00:00:33.973Z,25
2023-04-24T00:01:40.838Z,23
2023-04-24T00:02:48.756Z,22
2023-04-24T00:03:55.503Z,23
2023-04-24T00:05:02.407Z,22
2023-04-24T00:06:09.282Z,23
2023-04-24T00:07:16.108Z,23
2023-04-24T00:08:22.995Z,20
2023-04-24T00:09:30.910Z,23
2023-04-24T00:10:37.917Z,20
2023-04-24T00:11:44.722Z,20
2023-04-24T00:12:52.443Z,21
2023-04-24T00:14:00.051Z,20
2023-04-24T00:15:06.933Z,19
2023-04-24T00:16:14.152Z,18
2023-04-24T00:17:21.072Z,20
2023-04-24T00:18:27.953Z,22
2023-04-24T00:19:34.879Z,24
2023-04-24T00:20:41.818Z,18
2023-04-24T00:21:48.827Z,17
2023-04-24T00:22:58.044Z,17
2023-04-24T00:24:04.855Z,18
2023-04-24T00:25:11.682Z,17
2023-04-24T00:26:18.767Z,17
2023-04-24T00:27:25.590Z,18
2023-04-24T00:28:32.470Z,17
2023-04-24T00:29:39.328Z,17
2023-04-24T00:30:46.163Z,16
2023-04-24T00:31:54.183Z,15
2023-04-24T00:33:01.097Z,15
2023-04-24T00:34:07.872Z,16
2023-04-24T00:35:14.751Z,14
2023-04-24T00:36:21.630Z,15
2023-04-24T00:37:28.443Z,14
2023-04-24T00:38:36.494Z,13
2023-04-24T00:39:43.519Z,15
2023-04-24T00:40:50.181Z,15
2023-04-24T00:41:57.035Z,16
2023-04-24T00:43:03.847Z,15
2023-04-24T00:44:10.743Z,17
2023-04-24T00:45:17.706Z,14
2023-04-24T00:46:24.902Z,15
2023-04-24T00:47:31.863Z,14
2023-04-24T00:48:38.760Z,15
2023-04-24T00:49:46.492Z,14
2023-04-24T00:50:54.222Z,14
2023-04-24T00:52:01.048Z,13
2023-04-24T00:53:07.858Z,14
2023-04-24T00:54:14.671Z,14
2023-04-24T00:55:21.587Z,16
2023-04-24T00:56:28.400Z,13
2023-04-24T00:57:35.405Z,13
2023-04-24T00:58:42.279Z,16
2023-04-24T00:59:49.258Z,14
2023-04-24T01:00:56.128Z,13
2023-04-24T01:02:02.976Z,13
2023-04-24T01:03:10.684Z,15
2023-04-24T01:04:17.530Z,14
2023-04-24T01:05:24.396Z,16
2023-04-24T01:06:31.283Z,13
2023-04-24T01:07:38.083Z,12
2023-04-24T01:08:44.929Z,14
2023-04-24T01:09:51.765Z,11
2023-04-24T01:10:58.567Z,12
2023-04-24T01:12:05.490Z,14
2023-04-24T01:13:12.457Z,14
2023-04-24T01:14:19.361Z,13
2023-04-24T01:15:26.223Z,13
2023-04-24T01:16:33.251Z,14
2023-04-24T01:17:41.038Z,12
2023-04-24T01:18:48.811Z,13
2023-04-24T01:19:55.659Z,14
2023-04-24T01:21:02.683Z,11
2023-04-24T01:22:09.591Z,11
2023-04-24T01:23:16.357Z,11
2023-04-24T01:24:23.287Z,18
2023-04-24T01:25:30.369Z,11
2023-04-24T01:26:37.296Z,11
2023-04-24T01:27:44.211Z,13
2023-04-24T01:28:51.112Z,12
2023-04-24T01:29:57.909Z,12
2023-04-24T01:31:04.726Z,11
2023-04-24T01:32:11.595Z,14
2023-04-24T01:33:19.316Z,12
2023-04-24T01:34:26.180Z,12
2023-04-24T01:35:33.895Z,12
2023-04-24T01:36:40.821Z,11
2023-04-24T01:37:47.705Z,13
2023-04-24T01:38:54.639Z,12
2023-04-24T01:40:01.557Z,15
2023-04-24T01:41:11.304Z,16
2023-04-24T01:42:18.126Z,14
2023-04-24T01:43:24.965Z,14
2023-04-24T01:44:32.912Z,14
2023-04-24T01:45:39.707Z,15
2023-04-24T01:46:48.329Z,13
2023-04-24T01:47:55.177Z,13
2023-04-24T01:49:02.267Z,12
2023-04-24T01:50:09.123Z,14
2023-04-24T01:51:15.969Z,13
2023-04-24T01:52:22.816Z,13
2023-04-24T01:53:29.691Z,14
2023-04-24T01:54:36.482Z,15
2023-04-24T01:55:43.348Z,16
2023-04-24T01:56:50.191Z,14
2023-04-24T01:57:56.994Z,14
2023-04-24T01:59:03.840Z,16
2023-04-24T02:00:10.769Z,15
2023-04-24T02:01:18.785Z,14
2023-04-24T02:02:25.735Z,15
2023-04-24T02:03:32.895Z,14
2023-04-24T02:04:39.616Z,12
2023-04-24T02:05:46.511Z,14
2023-04-24T02:06:53.406Z,14
2023-04-24T02:08:00.217Z,13
2023-04-24T02:09:07.101Z,12
2023-04-24T02:10:13.962Z,17
2023-04-24T02:11:20.794Z,13
2023-04-24T02:12:27.723Z,14
2023-04-24T02:13:34.682Z,14
2023-04-24T02:14:41.571Z,15
2023-04-24T02:15:48.491Z,13
2023-04-24T02:16:55.349Z,12
2023-04-24T02:18:02.311Z,13
2023-04-24T02:19:09.183Z,13
2023-04-24T02:20:17.693Z,12
2023-04-24T02:21:25.501Z,13
2023-04-24T02:22:32.330Z,15
2023-04-24T02:23:39.412Z,13
2023-04-24T02:24:46.415Z,16
2023-04-24T02:25:53.245Z,14
2023-04-24T02:27:00.118Z,14
2023-04-24T02:28:07.116Z,13
2023-04-24T02:29:14.019Z,12
2023-04-24T02:30:20.806Z,14
2023-04-24T02:31:27.725Z,15
2023-04-24T02:32:34.524Z,13
2023-04-24T02:33:41.345Z,13
2023-04-24T02:34:48.173Z,14
2023-04-24T02:35:55.483Z,17
2023-04-24T02:37:02.355Z,11
2023-04-24T02:38:09.275Z,14
2023-04-24T02:39:16.091Z,11
2023-04-24T02:40:22.935Z,13
2023-04-24T02:41:29.835Z,13
2023-04-24T02:42:36.842Z,12
2023-04-24T02:43:43.730Z,13
2023-04-24T02:44:52.195Z,12
2023-04-24T02:45:59.106Z,14
2023-04-24T02:47:05.902Z,16
2023-04-24T02:48:13.092Z,12
2023-04-24T02:49:19.932Z,14
2023-04-24T02:50:26.783Z,14
2023-04-24T02:51:35.465Z,14
2023-04-24T02:52:42.317Z,12
2023-04-24T02:53:51.998Z,14
2023-04-24T02:54:58.893Z,15
2023-04-24T02:56:05.781Z,14
2023-04-24T02:57:13.477Z,13
2023-04-24T02:58:20.375Z,14
2023-04-24T02:59:27.256Z,13
2023-04-24T03:00:34.221Z,13
2023-04-24T03:01:41.089Z,12
2023-04-24T03:02:48.996Z,12
2023-04-24T03:03:56.771Z,12
2023-04-24T03:05:03.559Z,14
2023-04-24T03:06:10.494Z,11
2023-04-24T03:07:17.293Z,12
2023-04-24T03:08:24.177Z,13
2023-04-24T03:09:31.020Z,12
2023-04-24T03:10:37.813Z,10
2023-04-24T03:11:45.542Z,11
2023-04-24T03:12:52.437Z,11
2023-04-24T03:14:00.144Z,12
2023-04-24T03:15:09.018Z,14
2023-04-24T03:16:16.747Z,13
2023-04-24T03:17:23.511Z,14
2023-04-24T03:18:31.241Z,15
2023-04-24T03:19:38.042Z,14
2023-04-24T03:20:44.910Z,12
2023-04-24T03:21:51.690Z,15
2023-04-24T03:22:58.588Z,12
2023-04-24T03:24:05.435Z,14
2023-04-24T03:25:12.343Z,13
2023-04-24T03:26:19.244Z,14
2023-04-24T03:27:26.236Z,13
2023-04-24T03:28:33.169Z,11
2023-04-24T03:29:40.151Z,14
2023-04-24T03:30:47.672Z,12
2023-04-24T03:31:54.620Z,12
2023-04-24T03:33:02.370Z,14
2023-04-24T03:34:09.268Z,12
2023-04-24T03:35:15.980Z,14
2023-04-24T03:36:22.849Z,14
2023-04-24T03:37:29.729Z,13
2023-04-24T03:38:36.547Z,12
2023-04-24T03:39:43.724Z,10
2023-04-24T03:40:50.319Z,11
2023-04-24T03:41:57.314Z,12
2023-04-24T03:43:04.217Z,14
2023-04-24T03:44:11.030Z,15
2023-04-24T03:45:18.770Z,12
2023-04-24T03:46:25.730Z,15
2023-04-24T03:47:32.589Z,14
2023-04-24T03:48:39.267Z,13
2023-04-24T03:49:46.123Z,13
2023-04-24T03:50:53.705Z,13
2023-04-24T03:52:00.592Z,12
2023-04-24T03:53:07.392Z,13
2023-04-24T03:54:14.377Z,12
2023-04-24T03:55:21.378Z,12
2023-04-24T03:56:28.236Z,14
2023-04-24T03:57:35.088Z,13
2023-04-24T03:58:41.930Z,13
2023-04-24T03:59:49.664Z,13
2023-04-24T04:00:56.492Z,12
2023-04-24T04:02:03.314Z,11
2023-04-24T04:03:10.415Z,13
2023-04-24T04:04:18.072Z,13
2023-04-24T04:05:24.920Z,12
2023-04-24T04:06:33.572Z,13
2023-04-24T04:07:40.426Z,12
2023-04-24T04:08:47.456Z,13
2023-04-24T04:09:54.324Z,14
2023-04-24T04:11:05.326Z,16
2023-04-24T04:12:11.011Z,14
2023-04-24T04:13:17.912Z,14
2023-04-24T04:14:24.770Z,12
2023-04-24T04:15:31.590Z,12
2023-04-24T04:16:38.434Z,14
2023-04-24T04:17:45.398Z,12
2023-04-24T04:18:52.217Z,13
2023-04-24T04:19:59.055Z,14
2023-04-24T04:21:06.019Z,14
2023-04-24T04:22:12.897Z,12
2023-04-24T04:23:20.567Z,15
2023-04-24T04:24:27.575Z,18
2023-04-24T04:25:35.357Z,14
2023-04-24T04:26:43.117Z,11
2023-04-24T04:27:49.896Z,15
2023-04-24T04:28:56.738Z,14
2023-04-24T04:30:03.657Z,15
2023-04-24T04:31:10.827Z,14
2023-04-24T04:32:17.702Z,14
2023-04-24T04:33:24.491Z,13
2023-04-24T04:34:31.450Z,14
2023-04-24T04:35:38.322Z,14
2023-04-24T04:36:45.161Z,14
2023-04-24T04:37:53.713Z,13
2023-04-24T04:39:00.483Z,15
2023-04-24T04:40:07.328Z,14
2023-04-24T04:41:14.270Z,15
2023-04-24T04:42:21.046Z,16
2023-04-24T04:43:27.857Z,17
2023-04-24T04:44:34.691Z,16
2023-04-24T04:45:41.549Z,15
2023-04-24T04:46:48.315Z,17
2023-04-24T04:47:55.081Z,16
2023-04-24T04:49:01.971Z,14
2023-04-24T04:50:08.810Z,14
2023-04-24T04:51:16.684Z,17
2023-04-24T04:52:23.530Z,14
2023-04-24T04:53:30.441Z,19
2023-04-24T04:54:38.119Z,14
2023-04-24T04:55:44.925Z,16
2023-04-24T04:56:51.794Z,16
2023-04-24T04:58:00.361Z,14
2023-04-24T04:59:07.963Z,13
2023-04-24T05:00:14.782Z,16
2023-04-24T05:01:21.719Z,15
2023-04-24T05:02:28.632Z,16
2023-04-24T05:03:35.546Z,16
2023-04-24T05:04:42.599Z,15
2023-04-24T05:05:49.454Z,15
2023-04-24T05:06:56.265Z,16
2023-04-24T05:08:04.436Z,14
2023-04-24T05:09:12.452Z,13
2023-04-24T05:10:19.173Z,17
2023-04-24T05:11:25.985Z,18
2023-04-24T05:12:32.724Z,12
2023-04-24T05:13:40.881Z,14
2023-04-24T05:14:46.302Z,16
2023-04-24T05:15:53.065Z,13
2023-04-24T05:16:59.879Z,13
2023-04-24T05:18:06.917Z,12
2023-04-24T05:19:13.759Z,14
2023-04-24T05:20:20.595Z,11
2023-04-24T05:21:27.517Z,11
2023-04-24T05:22:34.318Z,12
2023-04-24T05:23:41.158Z,13
2023-04-24T05:24:47.927Z,12
2023-04-24T05:25:54.719Z,9
2023-04-24T05:27:01.494Z,11
2023-04-24T05:28:10.982Z,13
2023-04-24T05:29:17.844Z,12
2023-04-24T05:30:24.609Z,11
2023-04-24T05:31:31.494Z,12
2023-04-24T05:32:38.364Z,13
2023-04-24T05:33:45.344Z,12
2023-04-24T05:34:52.148Z,17
2023-04-24T05:35:59.030Z,14
2023-04-24T05:37:05.885Z,16
2023-04-24T05:38:12.702Z,13
2023-04-24T05:39:19.660Z,19
2023-04-24T05:40:26.320Z,14
2023-04-24T05:41:33.131Z,15
2023-04-24T05:42:39.918Z,17
2023-04-24T05:43:46.766Z,16
2023-04-24T05:44:53.924Z,17
2023-04-24T05:46:00.308Z,18
2023-04-24T05:47:07.131Z,15
2023-04-24T05:48:13.959Z,18
2023-04-24T05:49:20.780Z,15
2023-04-24T05:50:27.542Z,14
2023-04-24T05:51:34.339Z,15
2023-04-24T05:52:41.142Z,16
2023-04-24T05:53:47.986Z,23
2023-04-24T05:54:54.934Z,17
2023-04-24T05:56:01.892Z,19
2023-04-24T05:57:08.967Z,17
2023-04-24T05:58:15.903Z,20
2023-04-24T05:59:22.929Z,24
2023-04-24T06:00:29.853Z,20
2023-04-24T06:01:36.572Z,22
2023-04-24T06:02:43.414Z,18
2023-04-24T06:03:50.329Z,19
2023-04-24T06:04:57.081Z,20
2023-04-24T06:06:03.914Z,20
2023-04-24T06:07:10.742Z,21
2023-04-24T06:08:17.630Z,20
2023-04-24T06:09:24.437Z,25
2023-04-24T06:10:31.267Z,20
2023-04-24T06:11:38.101Z,18
2023-04-24T06:12:44.877Z,20
2023-04-24T06:13:51.737Z,20
2023-04-24T06:14:58.582Z,16
2023-04-24T06:16:05.528Z,19
2023-04-24T06:17:12.388Z,16
2023-04-24T06:18:19.486Z,22
2023-04-24T06:19:26.349Z,16
2023-04-24T06:20:33.201Z,17
2023-04-24T06:21:40.014Z,14
2023-04-24T06:22:46.921Z,16
2023-04-24T06:23:53.673Z,18
2023-04-24T06:25:00.538Z,40
2023-04-24T06:26:07.571Z,20
2023-04-24T06:27:15.706Z,17
2023-04-24T06:28:21.236Z,16
2023-04-24T06:29:28.039Z,17
2023-04-24T06:30:34.804Z,15
2023-04-24T06:31:41.643Z,15
2023-04-24T06:32:48.553Z,15
2023-04-24T06:33:55.331Z,16
2023-04-24T06:35:02.201Z,13
2023-04-24T06:36:09.266Z,13
2023-04-24T06:37:16.109Z,11
2023-04-24T06:38:22.986Z,11
2023-04-24T06:39:29.968Z,16
2023-04-24T06:40:36.743Z,29
2023-04-24T06:41:43.582Z,24
2023-04-24T06:42:50.362Z,13
2023-04-24T06:43:57.137Z,12
2023-04-24T06:45:03.929Z,11
2023-04-24T06:46:11.026Z,32
2023-04-24T06:47:17.775Z,13
2023-04-24T06:48:24.636Z,19
2023-04-24T06:49:31.413Z,16
2023-04-24T06:50:41.089Z,21
2023-04-24T06:51:47.887Z,13
2023-04-24T06:52:54.719Z,13
2023-04-24T06:54:01.699Z,11
2023-04-24T06:55:08.477Z,13
2023-04-24T06:56:15.385Z,13
2023-04-24T06:57:22.282Z,12
2023-04-24T06:58:29.090Z,10
2023-04-24T06:59:36.059Z,10
2023-04-24T07:00:42.971Z,16
2023-04-24T07:01:49.825Z,10
2023-04-24T07:02:59.113Z,12
2023-04-24T07:04:06.176Z,14
2023-04-24T07:05:12.679Z,13
2023-04-24T07:06:19.731Z,9
2023-04-24T07:07:26.500Z,13
2023-04-24T07:08:33.314Z,10
2023-04-24T07:09:40.183Z,13
2023-04-24T07:10:47.081Z,10
2023-04-24T07:11:53.990Z,13
2023-04-24T07:13:00.887Z,9
2023-04-24T07:14:07.845Z,10
2023-04-24T07:15:14.759Z,12
2023-04-24T07:16:21.654Z,10
2023-04-24T07:17:28.450Z,9
2023-04-24T07:18:35.360Z,8
2023-04-24T07:19:42.137Z,8
2023-04-24T07:20:48.837Z,9
2023-04-24T07:21:55.601Z,9
2023-04-24T07:23:02.365Z,8
2023-04-24T07:24:09.158Z,7
2023-04-24T07:25:15.992Z,9
2023-04-24T07:26:22.757Z,9
2023-04-24T07:27:29.577Z,6
2023-04-24T07:28:36.420Z,9
2023-04-24T07:29:43.356Z,7
2023-04-24T07:30:50.062Z,9
2023-04-24T07:31:56.991Z,9
2023-04-24T07:33:03.978Z,7
2023-04-24T07:34:10.684Z,8
2023-04-24T07:35:17.501Z,7
2023-04-24T07:36:24.355Z,8
2023-04-24T07:37:31.189Z,9
2023-04-24T07:38:38.472Z,8
2023-04-24T07:39:47.836Z,8
2023-04-24T07:40:54.647Z,11
2023-04-24T07:42:01.490Z,11
2023-04-24T07:43:08.343Z,9
2023-04-24T07:44:15.214Z,9
2023-04-24T07:45:22.017Z,10
2023-04-24T07:46:30.093Z,8
2023-04-24T07:47:36.903Z,9
2023-04-24T07:48:43.679Z,10
2023-04-24T07:49:50.415Z,7
2023-04-24T07:50:57.203Z,8
2023-04-24T07:52:04.010Z,11
2023-04-24T07:53:10.819Z,10
2023-04-24T07:54:17.694Z,12
2023-04-24T07:55:26.537Z,11
2023-04-24T07:56:31.260Z,14
2023-04-24T07:57:38.020Z,8
2023-04-24T07:58:44.820Z,10
2023-04-24T07:59:51.619Z,9
2023-04-24T08:00:58.402Z,13
2023-04-24T08:02:05.171Z,10
2023-04-24T08:03:12.091Z,7
2023-04-24T08:04:18.950Z,9
2023-04-24T08:05:25.899Z,8
2023-04-24T08:06:32.695Z,8
2023-04-24T08:07:39.535Z,8
2023-04-24T08:08:46.656Z,8
2023-04-24T08:09:53.490Z,8
2023-04-24T08:11:00.311Z,9
2023-04-24T08:12:07.201Z,8
2023-04-24T08:13:14.157Z,9
2023-04-24T08:14:21.121Z,7
2023-04-24T08:15:28.005Z,7
2023-04-24T08:16:35.282Z,7
2023-04-24T08:17:42.131Z,7
2023-04-24T08:18:48.941Z,7
2023-04-24T08:19:56.024Z,7
2023-04-24T08:21:02.852Z,6
2023-04-24T08:22:09.637Z,8
2023-04-24T08:23:16.474Z,12
2023-04-24T08:24:23.297Z,6
2023-04-24T08:25:30.125Z,8
2023-04-24T08:26:36.953Z,8
2023-04-24T08:27:43.722Z,8
2023-04-24T08:28:50.550Z,8
2023-04-24T08:29:57.383Z,9
2023-04-24T08:31:04.276Z,8
2023-04-24T08:32:11.109Z,8
2023-04-24T08:33:17.985Z,7
2023-04-24T08:34:27.655Z,6
2023-04-24T08:35:34.663Z,10
2023-04-24T08:36:46.887Z,9
2023-04-24T08:37:48.290Z,6
2023-04-24T08:38:55.170Z,6
2023-04-24T08:40:02.084Z,6
2023-04-24T08:41:14.036Z,11
2023-04-24T08:42:20.854Z,7
2023-04-24T08:43:28.094Z,8
2023-04-24T08:44:34.861Z,8
2023-04-24T08:45:41.752Z,6
2023-04-24T08:46:48.652Z,7
2023-04-24T08:47:55.322Z,6
2023-04-24T08:49:02.102Z,7
2023-04-24T08:50:08.888Z,8
2023-04-24T08:51:15.729Z,6
2023-04-24T08:52:22.510Z,8
2023-04-24T08:53:29.287Z,8
2023-04-24T08:54:36.102Z,8
2023-04-24T08:55:42.935Z,7
2023-04-24T08:56:49.820Z,8
2023-04-24T08:57:56.582Z,7
2023-04-24T08:59:03.385Z,7
2023-04-24T09:00:11.836Z,7
2023-04-24T09:01:17.477Z,7
2023-04-24T09:02:24.510Z,8
2023-04-24T09:03:31.398Z,10
2023-04-24T09:04:38.383Z,14
2023-04-24T09:05:45.262Z,7
2023-04-24T09:06:52.138Z,6
2023-04-24T09:07:58.921Z,8
2023-04-24T09:09:05.746Z,7
2023-04-24T09:10:12.726Z,6
2023-04-24T09:11:19.495Z,6
2023-04-24T09:12:26.301Z,7
2023-04-24T09:13:33.105Z,8
2023-04-24T09:14:39.958Z,10
2023-04-24T09:15:46.827Z,7
2023-04-24T09:16:53.724Z,7
2023-04-24T09:18:00.460Z,8
2023-04-24T09:19:07.391Z,9
2023-04-24T09:20:14.823Z,7
2023-04-24T09:21:21.766Z,6
2023-04-24T09:22:28.602Z,6
2023-04-24T09:23:35.368Z,9
2023-04-24T09:24:42.150Z,6
2023-04-24T09:25:48.931Z,10
2023-04-24T09:26:55.711Z,6
2023-04-24T09:28:02.531Z,8
2023-04-24T09:29:09.355Z,7
2023-04-24T09:30:19.073Z,7
2023-04-24T09:31:25.761Z,9
2023-04-24T09:32:32.583Z,8
2023-04-24T09:33:39.364Z,10
2023-04-24T09:34:51.335Z,8
2023-04-24T09:36:08.453Z,14
2023-04-24T09:37:15.397Z,8
2023-04-24T09:38:22.233Z,9
2023-04-24T09:39:34.182Z,9
2023-04-24T09:40:41.669Z,10
2023-04-24T09:41:47.725Z,9
2023-04-24T09:42:54.508Z,10
2023-04-24T09:44:01.311Z,10
2023-04-24T09:45:16.393Z,9
2023-04-24T09:46:22.957Z,8
2023-04-24T09:47:34.980Z,8
2023-04-24T09:48:41.792Z,7
2023-04-24T09:49:48.589Z,9
2023-04-24T09:50:55.326Z,12
2023-04-24T09:52:02.153Z,7
2023-04-24T09:53:09.134Z,8
2023-04-24T09:54:15.897Z,8
2023-04-24T09:55:25.492Z,9
2023-04-24T09:56:32.399Z,13
2023-04-24T09:57:39.348Z,10
2023-04-24T09:58:53.825Z,10
2023-04-24T10:00:00.590Z,9
2023-04-24T10:01:07.897Z,11
2023-04-24T10:02:14.712Z,11
2023-04-24T10:03:21.599Z,10
2023-04-24T10:04:28.367Z,10
2023-04-24T10:05:35.256Z,9
2023-04-24T10:06:42.128Z,9
2023-04-24T10:07:50.132Z,10
2023-04-24T10:08:55.807Z,8
2023-04-24T10:10:02.816Z,8
2023-04-24T10:11:09.816Z,10
2023-04-24T10:12:16.619Z,9
2023-04-24T10:13:23.639Z,8
2023-04-24T10:14:30.537Z,9
2023-04-24T10:15:37.415Z,9
2023-04-24T10:16:44.239Z,11
2023-04-24T10:17:51.188Z,6
2023-04-24T10:18:58.039Z,9
2023-04-24T10:20:04.871Z,11
2023-04-24T10:21:11.916Z,13
2023-04-24T10:22:18.720Z,9
2023-04-24T10:23:25.537Z,7
2023-04-24T10:24:32.412Z,11
2023-04-24T10:25:39.209Z,10
2023-04-24T10:26:45.973Z,10
2023-04-24T10:27:52.767Z,8
2023-04-24T10:29:02.356Z,9
2023-04-24T10:30:09.160Z,11
2023-04-24T10:31:16.116Z,10
2023-04-24T10:32:22.933Z,10
2023-04-24T10:33:29.689Z,10
2023-04-24T10:34:36.500Z,9
2023-04-24T10:35:43.333Z,11
2023-04-24T10:36:50.238Z,9
2023-04-24T10:37:56.974Z,11
2023-04-24T10:39:06.782Z,13
2023-04-24T10:40:13.630Z,9
2023-04-24T10:41:23.572Z,9
2023-04-24T10:42:30.461Z,8
2023-04-24T10:43:37.261Z,8
2023-04-24T10:44:44.090Z,10
2023-04-24T10:45:50.891Z,8
2023-04-24T10:47:05.867Z,9
2023-04-24T10:48:18.195Z,7
2023-04-24T10:49:24.970Z,8
2023-04-24T10:50:31.718Z,9
2023-04-24T10:51:46.921Z,9
2023-04-24T10:52:56.370Z,11
2023-04-24T10:54:03.159Z,8
2023-04-24T10:55:09.980Z,8
2023-04-24T10:56:16.754Z,8
2023-04-24T10:57:23.619Z,10
2023-04-24T10:58:30.360Z,9
2023-04-24T10:59:45.224Z,9
2023-04-24T11:00:52.009Z,8
2023-04-24T11:02:03.999Z,9
2023-04-24T11:03:10.934Z,8
2023-04-24T11:04:28.004Z,19
2023-04-24T11:05:34.813Z,11
2023-04-24T11:06:51.937Z,10
2023-04-24T11:07:58.872Z,9
2023-04-24T11:09:16.089Z,10
2023-04-24T11:10:22.946Z,11
2023-04-24T11:11:29.751Z,9
2023-04-24T11:12:36.623Z,12
2023-04-24T11:13:43.400Z,8
2023-04-24T11:14:58.548Z,9
2023-04-24T11:16:04.952Z,10
2023-04-24T11:17:16.901Z,11
2023-04-24T11:18:34.058Z,9
2023-04-24T11:19:40.803Z,9
2023-04-24T11:20:47.568Z,11
2023-04-24T11:21:54.361Z,10
2023-04-24T11:23:04.032Z,12
2023-04-24T11:24:10.794Z,10
2023-04-24T11:25:28.016Z,9
2023-04-24T11:26:34.801Z,10
2023-04-24T11:27:41.599Z,10
2023-04-24T11:28:48.404Z,20
2023-04-24T11:29:55.255Z,12
2023-04-24T11:31:02.085Z,14
2023-04-24T11:32:19.435Z,9
2023-04-24T11:33:28.990Z,15
2023-04-24T11:34:35.761Z,17
2023-04-24T11:35:42.556Z,20
2023-04-24T11:36:49.330Z,22
2023-04-24T11:38:08.532Z,13
2023-04-24T11:39:02.957Z,12
2023-04-24T11:40:09.685Z,13
2023-04-24T11:41:16.443Z,17
2023-04-24T11:42:23.243Z,25
2023-04-24T11:43:30.026Z,13
2023-04-24T11:44:36.848Z,14
2023-04-24T11:45:43.656Z,12
2023-04-24T11:46:53.190Z,11
2023-04-24T11:48:00.203Z,13
2023-04-24T11:49:06.983Z,11
2023-04-24T11:50:13.908Z,9
2023-04-24T11:51:20.877Z,8
2023-04-24T11:52:27.807Z,9
2023-04-24T11:53:34.607Z,9
2023-04-24T11:54:41.463Z,11
2023-04-24T11:55:53.422Z,9
2023-04-24T11:57:00.176Z,11
2023-04-24T11:58:09.704Z,12
2023-04-24T11:59:16.438Z,11
2023-04-24T12:00:23.226Z,10
2023-04-24T12:01:33.214Z,10
2023-04-24T12:02:48.381Z,9
2023-04-24T12:03:55.251Z,11
2023-04-24T12:05:04.880Z,9
2023-04-24T12:06:11.529Z,9
2023-04-24T12:07:18.259Z,12
2023-04-24T12:08:25.004Z,11
2023-04-24T12:09:31.824Z,10
2023-04-24T12:10:49.031Z,9
2023-04-24T12:11:55.795Z,13
2023-04-24T12:13:02.580Z,9
2023-04-24T12:14:09.327Z,7
2023-04-24T12:15:16.118Z,9
2023-04-24T12:16:22.906Z,9
2023-04-24T12:17:29.875Z,9
2023-04-24T12:18:36.455Z,19
2023-04-24T12:19:45.812Z,9
2023-04-24T12:20:52.929Z,10
2023-04-24T12:22:00.784Z,10
2023-04-24T12:23:07.653Z,9
2023-04-24T12:24:14.618Z,12
2023-04-24T12:25:21.506Z,10
2023-04-24T12:26:28.341Z,12
2023-04-24T12:27:35.160Z,11
2023-04-24T12:28:42.020Z,10
2023-04-24T12:29:48.857Z,14
2023-04-24T12:30:55.775Z,11
2023-04-24T12:32:02.614Z,13
2023-04-24T12:33:09.489Z,10
2023-04-24T12:34:16.328Z,9
2023-04-24T12:35:25.825Z,9
2023-04-24T12:36:32.567Z,11
2023-04-24T12:37:39.430Z,10
2023-04-24T12:38:46.207Z,12
2023-04-24T12:39:52.926Z,12
2023-04-24T12:41:07.433Z,13
2023-04-24T12:42:14.300Z,11
2023-04-24T12:43:21.204Z,11
2023-04-24T12:44:28.124Z,11
2023-04-24T12:45:35.026Z,10
2023-04-24T12:46:41.857Z,10
2023-04-24T12:47:48.697Z,8
2023-04-24T12:48:55.438Z,10
2023-04-24T12:50:02.253Z,7
2023-04-24T12:51:09.346Z,13
2023-04-24T12:52:16.036Z,11
2023-04-24T12:53:22.800Z,12
2023-04-24T12:54:29.529Z,13
2023-04-24T12:55:36.323Z,10
2023-04-24T12:56:43.092Z,10
2023-04-24T12:57:49.986Z,13
2023-04-24T12:58:56.756Z,8
2023-04-24T13:00:03.864Z,9
2023-04-24T13:01:10.939Z,12
2023-04-24T13:02:17.689Z,14
2023-04-24T13:03:25.475Z,13
2023-04-24T13:04:32.444Z,11
2023-04-24T13:05:39.356Z,11
2023-04-24T13:06:46.527Z,10
2023-04-24T13:07:53.497Z,9
2023-04-24T13:09:00.390Z,11
2023-04-24T13:10:07.178Z,8
2023-04-24T13:11:14.038Z,11
2023-04-24T13:12:20.814Z,9
2023-04-24T13:13:30.440Z,11
2023-04-24T13:14:37.269Z,11
2023-04-24T13:15:44.104Z,11
2023-04-24T13:16:51.097Z,13
2023-04-24T13:17:57.858Z,11
2023-04-24T13:19:04.747Z,11
2023-04-24T13:20:11.687Z,9
2023-04-24T13:21:18.707Z,12
2023-04-24T13:22:25.531Z,13
2023-04-24T13:23:32.278Z,12
2023-04-24T13:24:39.954Z,11
2023-04-24T13:25:46.113Z,11
2023-04-24T13:26:53.151Z,12
2023-04-24T13:28:00.139Z,12
2023-04-24T13:29:06.939Z,11
2023-04-24T13:30:13.806Z,11
2023-04-24T13:31:20.629Z,9
2023-04-24T13:32:27.445Z,8
2023-04-24T13:33:34.233Z,12
2023-04-24T13:34:41.009Z,10
2023-04-24T13:35:47.744Z,10
2023-04-24T13:36:55.475Z,10
2023-04-24T13:38:02.335Z,10
2023-04-24T13:39:09.101Z,10
2023-04-24T13:40:16.319Z,11
2023-04-24T13:41:23.126Z,9
2023-04-24T13:42:29.896Z,11
2023-04-24T13:43:36.670Z,11
2023-04-24T13:44:43.486Z,19
2023-04-24T13:45:50.365Z,10
2023-04-24T13:46:57.028Z,14
2023-04-24T13:48:03.880Z,15
2023-04-24T13:49:10.662Z,10
2023-04-24T13:50:17.491Z,11
2023-04-24T13:51:24.367Z,9
2023-04-24T13:52:31.212Z,9
2023-04-24T13:53:37.991Z,10
2023-04-24T13:54:44.808Z,8
2023-04-24T13:55:51.672Z,9
2023-04-24T13:56:58.507Z,9
2023-04-24T13:58:05.339Z,8
2023-04-24T13:59:12.112Z,8
2023-04-24T14:00:18.942Z,9
2023-04-24T14:01:25.724Z,9
2023-04-24T14:02:32.705Z,7
2023-04-24T14:03:39.450Z,8
2023-04-24T14:04:46.321Z,8
2023-04-24T14:05:52.972Z,7
2023-04-24T14:06:59.946Z,8
2023-04-24T14:08:06.769Z,8
2023-04-24T14:09:13.577Z,8
2023-04-24T14:10:20.429Z,9
2023-04-24T14:11:27.238Z,7
2023-04-24T14:12:34.065Z,8
2023-04-24T14:13:41.947Z,8
2023-04-24T14:14:48.656Z,8
2023-04-24T14:15:55.540Z,7
2023-04-24T14:17:02.392Z,7
2023-04-24T14:18:09.269Z,7
2023-04-24T14:19:17.012Z,10
2023-04-24T14:20:23.813Z,7
2023-04-24T14:21:30.628Z,7
2023-04-24T14:22:37.434Z,7
2023-04-24T14:23:44.303Z,9
2023-04-24T14:24:51.085Z,8
2023-04-24T14:25:57.842Z,9
2023-04-24T14:27:04.698Z,9
2023-04-24T14:28:11.485Z,7
2023-04-24T14:29:18.319Z,7
2023-04-24T14:30:25.118Z,23
2023-04-24T14:31:32.033Z,13
2023-04-24T14:32:38.773Z,11
2023-04-24T14:33:45.711Z,9
2023-04-24T14:34:52.327Z,9
2023-04-24T14:35:59.141Z,9
2023-04-24T14:37:05.982Z,7
2023-04-24T14:38:12.711Z,11
2023-04-24T14:39:19.478Z,9
2023-04-24T14:41:33.222Z,16
2023-04-24T14:42:40.022Z,10
2023-04-24T14:43:47.066Z,9
2023-04-24T14:44:53.634Z,10
2023-04-24T14:46:00.445Z,10
2023-04-24T14:47:07.314Z,21
2023-04-24T14:48:13.994Z,11
2023-04-24T14:49:20.861Z,11
2023-04-24T14:50:27.834Z,11
2023-04-24T14:51:34.607Z,10
2023-04-24T14:52:41.382Z,11
2023-04-24T14:53:48.593Z,10
2023-04-24T14:54:55.568Z,9
2023-04-24T14:56:02.387Z,10
2023-04-24T14:57:09.410Z,11
2023-04-24T14:58:16.343Z,11
2023-04-24T14:59:23.246Z,8
2023-04-24T15:00:30.019Z,8
2023-04-24T15:01:36.848Z,11
2023-04-24T15:02:43.727Z,14
2023-04-24T15:03:50.666Z,13
2023-04-24T15:04:57.390Z,14
2023-04-24T15:06:03.937Z,12
2023-04-24T15:07:10.783Z,16
2023-04-24T15:08:17.592Z,13
2023-04-24T15:09:24.375Z,16
2023-04-24T15:10:31.272Z,13
2023-04-24T15:11:38.354Z,13
2023-04-24T15:12:45.123Z,14
2023-04-24T15:13:54.366Z,13
2023-04-24T15:15:01.192Z,12
2023-04-24T15:16:08.403Z,12
2023-04-24T15:17:15.230Z,14
2023-04-24T15:18:22.190Z,11
2023-04-24T15:19:28.854Z,10
2023-04-24T15:20:37.985Z,14
2023-04-24T15:21:45.590Z,19
2023-04-24T15:22:52.364Z,25
2023-04-24T15:23:59.121Z,22
2023-04-24T15:25:05.981Z,14
2023-04-24T15:26:12.800Z,13
2023-04-24T15:27:19.550Z,14
2023-04-24T15:28:26.365Z,12
2023-04-24T15:29:33.187Z,12
2023-04-24T15:30:39.937Z,11
2023-04-24T15:31:46.807Z,10
2023-04-24T15:32:53.595Z,12
2023-04-24T15:34:00.441Z,11
2023-04-24T15:35:08.835Z,10
2023-04-24T15:36:13.986Z,10
2023-04-24T15:37:20.776Z,11
2023-04-24T15:38:27.549Z,11
2023-04-24T15:39:34.356Z,10
2023-04-24T15:40:41.279Z,11
2023-04-24T15:41:48.058Z,11
2023-04-24T15:42:54.895Z,10
2023-04-24T15:44:01.743Z,12
2023-04-24T15:45:08.602Z,12
2023-04-24T15:46:15.635Z,14
2023-04-24T15:47:22.384Z,12
2023-04-24T15:48:29.206Z,11
2023-04-24T15:49:36.024Z,10
2023-04-24T15:50:42.822Z,13
2023-04-24T15:51:49.631Z,10
2023-04-24T15:52:56.468Z,10
2023-04-24T15:54:03.311Z,8
2023-04-24T15:55:10.130Z,9
2023-04-24T15:56:16.891Z,8
2023-04-24T15:57:23.646Z,9
2023-04-24T15:58:30.452Z,9
2023-04-24T15:59:38.437Z,8
2023-04-24T16:00:45.383Z,10
2023-04-24T16:01:52.215Z,10
2023-04-24T16:02:59.145Z,9
2023-04-24T16:04:06.102Z,10
2023-04-24T16:05:13.290Z,10
2023-04-24T16:06:20.069Z,14
2023-04-24T16:07:26.863Z,11
2023-04-24T16:08:33.693Z,11
2023-04-24T16:09:40.622Z,10